Terminal Aerodrome Forecast
Issued by NWS Mt. Holly, NJ

Home | Current Version | Previous Version | Text Only | Print | Product List | Glossary On
Versions: 1 2 3 4 5 6 7 8 9 10 11 12 13 14 15 16 17 18 19 20 21 22
000
FTUS41 KPHI 262337
TAFTTN
TAF
KTTN 262337Z 2700/2724 29010KT P6SM BKN050
     FM270400 30005KT P6SM FEW060
     FM271400 VRB03KT P6SM BKN110
     FM271500 VRB03KT P6SM BKN090
      TEMPO 2716/2720 6SM -SHRA OVC035
     FM272100 VRB03KT P6SM BKN050=

USA.gov is the U.S. government's official web portal to all federal, state and local government web resources and services.